sensor_id;sensor_type;location;lat;lon;timestamp;P1;durP1;ratioP1;P2;durP2;ratioP2
3789;SDS011;1910;49.042;9.028;2023-05-14T00:00:49;3.37;;;3.07;;
3789;SDS011;1910;49.042;9.028;2023-05-14T00:03:15;3.88;;;2.83;;
3789;SDS011;1910;49.042;9.028;2023-05-14T00:05:40;5.17;;;3.40;;
3789;SDS011;1910;49.042;9.028;2023-05-14T00:08:06;6.27;;;3.50;;
3789;SDS011;1910;49.042;9.028;2023-05-14T00:10:31;4.40;;;3.57;;
3789;SDS011;1910;49.042;9.028;2023-05-14T00:12:57;7.50;;;3.60;;
3789;SDS011;1910;49.042;9.028;2023-05-14T00:15:22;4.80;;;3.73;;
3789;SDS011;1910;49.042;9.028;2023-05-14T00:17:48;5.77;;;4.43;;
3789;SDS011;1910;49.042;9.028;2023-05-14T00:20:14;5.00;;;3.20;;
3789;SDS011;1910;49.042;9.028;2023-05-14T00:22:39;5.43;;;3.10;;
3789;SDS011;1910;49.042;9.028;2023-05-14T00:25:06;3.08;;;2.78;;
3789;SDS011;1910;49.042;9.028;2023-05-14T00:27:32;4.30;;;3.00;;
3789;SDS011;1910;49.042;9.028;2023-05-14T00:29:58;3.53;;;3.13;;
3789;SDS011;1910;49.042;9.028;2023-05-14T00:32:24;4.43;;;2.50;;
3789;SDS011;1910;49.042;9.028;2023-05-14T00:34:49;3.60;;;2.80;;
3789;SDS011;1910;49.042;9.028;2023-05-14T00:37:15;4.70;;;3.50;;
3789;SDS011;1910;49.042;9.028;2023-05-14T00:39:40;4.23;;;3.37;;
3789;SDS011;1910;49.042;9.028;2023-05-14T00:42:06;3.80;;;3.37;;
3789;SDS011;1910;49.042;9.028;2023-05-14T00:44:31;4.57;;;3.60;;
3789;SDS011;1910;49.042;9.028;2023-05-14T00:46:57;4.73;;;3.50;;
3789;SDS011;1910;49.042;9.028;2023-05-14T00:49:24;6.28;;;3.42;;
3789;SDS011;1910;49.042;9.028;2023-05-14T00:51:50;4.45;;;2.60;;
3789;SDS011;1910;49.042;9.028;2023-05-14T00:54:16;5.72;;;2.47;;
3789;SDS011;1910;49.042;9.028;2023-05-14T00:56:43;6.35;;;3.65;;
3789;SDS011;1910;49.042;9.028;2023-05-14T00:59:10;5.25;;;3.20;;
3789;SDS011;1910;49.042;9.028;2023-05-14T01:01:36;5.20;;;3.17;;
3789;SDS011;1910;49.042;9.028;2023-05-14T01:04:01;6.40;;;3.73;;
3789;SDS011;1910;49.042;9.028;2023-05-14T01:06:30;4.47;;;3.20;;
3789;SDS011;1910;49.042;9.028;2023-05-14T01:12:07;4.15;;;3.78;;
3789;SDS011;1910;49.042;9.028;2023-05-14T01:14:50;3.30;;;3.00;;
3789;SDS011;1910;49.042;9.028;2023-05-14T01:17:26;2.80;;;2.60;;
3789;SDS011;1910;49.042;9.028;2023-05-14T01:19:54;3.85;;;3.45;;
3789;SDS011;1910;49.042;9.028;2023-05-14T01:22:21;4.22;;;3.08;;
3789;SDS011;1910;49.042;9.028;2023-05-14T01:24:47;3.50;;;2.80;;
3789;SDS011;1910;49.042;9.028;2023-05-14T01:27:17;3.80;;;2.73;;
3789;SDS011;1910;49.042;9.028;2023-05-14T01:32:45;4.60;;;2.97;;
3789;SDS011;1910;49.042;9.028;2023-05-14T01:35:12;6.68;;;3.83;;
3789;SDS011;1910;49.042;9.028;2023-05-14T01:37:38;5.13;;;3.70;;
3789;SDS011;1910;49.042;9.028;2023-05-14T01:40:06;5.00;;;4.50;;
3789;SDS011;1910;49.042;9.028;2023-05-14T01:42:33;4.70;;;4.00;;
3789;SDS011;1910;49.042;9.028;2023-05-14T01:44:59;4.25;;;3.63;;
3789;SDS011;1910;49.042;9.028;2023-05-14T01:47:25;6.20;;;3.75;;
3789;SDS011;1910;49.042;9.028;2023-05-14T01:49:51;5.90;;;4.27;;
3789;SDS011;1910;49.042;9.028;2023-05-14T01:52:17;11.43;;;4.20;;
3789;SDS011;1910;49.042;9.028;2023-05-14T01:54:45;5.93;;;3.00;;
3789;SDS011;1910;49.042;9.028;2023-05-14T01:57:14;5.72;;;3.53;;
3789;SDS011;1910;49.042;9.028;2023-05-14T01:59:40;3.97;;;3.47;;
3789;SDS011;1910;49.042;9.028;2023-05-14T02:02:05;5.47;;;3.53;;
3789;SDS011;1910;49.042;9.028;2023-05-14T02:04:31;5.70;;;3.43;;
3789;SDS011;1910;49.042;9.028;2023-05-14T02:06:56;6.20;;;3.60;;
3789;SDS011;1910;49.042;9.028;2023-05-14T02:09:22;6.17;;;4.13;;
3789;SDS011;1910;49.042;9.028;2023-05-14T02:11:48;6.93;;;3.83;;
3789;SDS011;1910;49.042;9.028;2023-05-14T02:14:14;7.90;;;4.23;;
3789;SDS011;1910;49.042;9.028;2023-05-14T02:16:40;7.80;;;4.30;;
3789;SDS011;1910;49.042;9.028;2023-05-14T02:19:07;6.60;;;3.73;;
3789;SDS011;1910;49.042;9.028;2023-05-14T02:21:32;4.90;;;3.95;;
3789;SDS011;1910;49.042;9.028;2023-05-14T02:23:58;9.33;;;4.43;;
3789;SDS011;1910;49.042;9.028;2023-05-14T02:26:24;8.00;;;3.70;;
3789;SDS011;1910;49.042;9.028;2023-05-14T02:28:50;6.35;;;3.92;;
3789;SDS011;1910;49.042;9.028;2023-05-14T02:31:15;5.47;;;3.80;;
3789;SDS011;1910;49.042;9.028;2023-05-14T02:33:43;6.15;;;3.65;;
3789;SDS011;1910;49.042;9.028;2023-05-14T02:36:09;6.80;;;4.70;;
3789;SDS011;1910;49.042;9.028;2023-05-14T02:38:34;11.00;;;4.67;;
3789;SDS011;1910;49.042;9.028;2023-05-14T02:41:00;6.77;;;3.83;;
3789;SDS011;1910;49.042;9.028;2023-05-14T02:43:26;7.73;;;4.07;;
3789;SDS011;1910;49.042;9.028;2023-05-14T02:45:52;4.73;;;3.40;;
3789;SDS011;1910;49.042;9.028;2023-05-14T02:48:18;4.90;;;3.37;;
3789;SDS011;1910;49.042;9.028;2023-05-14T02:50:43;6.33;;;3.93;;
3789;SDS011;1910;49.042;9.028;2023-05-14T02:53:09;8.53;;;4.10;;
3789;SDS011;1910;49.042;9.028;2023-05-14T02:55:35;5.07;;;2.97;;
3789;SDS011;1910;49.042;9.028;2023-05-14T02:58:00;6.27;;;3.37;;
3789;SDS011;1910;49.042;9.028;2023-05-14T03:00:26;7.70;;;4.30;;
3789;SDS011;1910;49.042;9.028;2023-05-14T03:02:52;5.97;;;4.07;;
3789;SDS011;1910;49.042;9.028;2023-05-14T03:05:17;5.40;;;3.60;;
3789;SDS011;1910;49.042;9.028;2023-05-14T03:07:43;5.20;;;3.57;;
3789;SDS011;1910;49.042;9.028;2023-05-14T03:10:09;6.10;;;3.50;;
3789;SDS011;1910;49.042;9.028;2023-05-14T03:12:34;5.10;;;3.83;;
3789;SDS011;1910;49.042;9.028;2023-05-14T03:15:00;6.17;;;3.90;;
3789;SDS011;1910;49.042;9.028;2023-05-14T03:17:26;6.10;;;3.80;;
3789;SDS011;1910;49.042;9.028;2023-05-14T03:19:52;7.40;;;4.90;;
3789;SDS011;1910;49.042;9.028;2023-05-14T03:22:18;7.40;;;4.97;;
3789;SDS011;1910;49.042;9.028;2023-05-14T03:24:44;8.55;;;4.80;;
3789;SDS011;1910;49.042;9.028;2023-05-14T03:27:10;5.83;;;3.93;;
3789;SDS011;1910;49.042;9.028;2023-05-14T03:29:36;7.60;;;4.80;;
3789;SDS011;1910;49.042;9.028;2023-05-14T03:32:02;10.23;;;5.13;;
3789;SDS011;1910;49.042;9.028;2023-05-14T03:34:28;8.33;;;5.13;;
3789;SDS011;1910;49.042;9.028;2023-05-14T03:36:53;4.33;;;3.93;;
3789;SDS011;1910;49.042;9.028;2023-05-14T03:39:19;7.03;;;4.87;;
3789;SDS011;1910;49.042;9.028;2023-05-14T03:41:45;7.60;;;4.57;;
3789;SDS011;1910;49.042;9.028;2023-05-14T03:44:11;6.05;;;4.50;;
3789;SDS011;1910;49.042;9.028;2023-05-14T03:46:37;7.70;;;4.60;;
3789;SDS011;1910;49.042;9.028;2023-05-14T03:49:05;9.77;;;4.83;;
3789;SDS011;1910;49.042;9.028;2023-05-14T03:51:32;6.95;;;4.50;;
3789;SDS011;1910;49.042;9.028;2023-05-14T03:53:57;5.87;;;3.70;;
3789;SDS011;1910;49.042;9.028;2023-05-14T03:56:23;7.20;;;5.37;;
3789;SDS011;1910;49.042;9.028;2023-05-14T03:58:50;8.00;;;4.50;;
3789;SDS011;1910;49.042;9.028;2023-05-14T04:01:16;6.65;;;4.68;;
3789;SDS011;1910;49.042;9.028;2023-05-14T04:03:42;8.87;;;4.93;;
3789;SDS011;1910;49.042;9.028;2023-05-14T04:06:07;11.77;;;5.07;;
3789;SDS011;1910;49.042;9.028;2023-05-14T04:08:33;9.35;;;4.75;;
3789;SDS011;1910;49.042;9.028;2023-05-14T04:10:59;10.00;;;5.57;;
3789;SDS011;1910;49.042;9.028;2023-05-14T04:13:25;6.20;;;4.37;;
3789;SDS011;1910;49.042;9.028;2023-05-14T04:15:51;7.80;;;5.77;;
3789;SDS011;1910;49.042;9.028;2023-05-14T04:18:17;6.67;;;3.97;;
3789;SDS011;1910;49.042;9.028;2023-05-14T04:20:43;7.87;;;5.00;;
3789;SDS011;1910;49.042;9.028;2023-05-14T04:23:09;8.47;;;5.33;;
3789;SDS011;1910;49.042;9.028;2023-05-14T04:25:35;8.75;;;5.18;;
3789;SDS011;1910;49.042;9.028;2023-05-14T04:28:01;9.93;;;5.70;;
3789;SDS011;1910;49.042;9.028;2023-05-14T04:30:27;10.32;;;6.75;;
3789;SDS011;1910;49.042;9.028;2023-05-14T04:32:52;9.57;;;5.00;;
3789;SDS011;1910;49.042;9.028;2023-05-14T04:35:18;8.10;;;5.10;;
3789;SDS011;1910;49.042;9.028;2023-05-14T04:37:45;7.13;;;5.38;;
3789;SDS011;1910;49.042;9.028;2023-05-14T04:40:11;11.60;;;7.18;;
3789;SDS011;1910;49.042;9.028;2023-05-14T04:42:37;10.70;;;6.57;;
3789;SDS011;1910;49.042;9.028;2023-05-14T04:45:04;7.93;;;5.55;;
3789;SDS011;1910;49.042;9.028;2023-05-14T04:47:30;9.32;;;5.43;;
3789;SDS011;1910;49.042;9.028;2023-05-14T04:49:56;25.00;;;7.07;;
3789;SDS011;1910;49.042;9.028;2023-05-14T04:52:23;9.40;;;5.93;;
3789;SDS011;1910;49.042;9.028;2023-05-14T04:54:49;10.02;;;5.65;;
3789;SDS011;1910;49.042;9.028;2023-05-14T04:57:14;11.73;;;5.80;;
3789;SDS011;1910;49.042;9.028;2023-05-14T04:59:40;11.38;;;6.25;;
3789;SDS011;1910;49.042;9.028;2023-05-14T05:02:06;8.43;;;5.53;;
3789;SDS011;1910;49.042;9.028;2023-05-14T05:04:32;7.55;;;5.10;;
3789;SDS011;1910;49.042;9.028;2023-05-14T05:06:58;8.05;;;6.25;;
3789;SDS011;1910;49.042;9.028;2023-05-14T05:09:24;10.73;;;6.63;;
3789;SDS011;1910;49.042;9.028;2023-05-14T05:11:50;10.23;;;6.30;;
3789;SDS011;1910;49.042;9.028;2023-05-14T05:14:16;6.10;;;4.73;;
3789;SDS011;1910;49.042;9.028;2023-05-14T05:16:42;9.50;;;5.90;;
3789;SDS011;1910;49.042;9.028;2023-05-14T05:19:09;7.75;;;5.47;;
3789;SDS011;1910;49.042;9.028;2023-05-14T05:21:34;9.23;;;5.60;;
3789;SDS011;1910;49.042;9.028;2023-05-14T05:24:00;8.07;;;4.85;;
3789;SDS011;1910;49.042;9.028;2023-05-14T05:26:26;9.50;;;5.87;;
3789;SDS011;1910;49.042;9.028;2023-05-14T05:28:52;7.67;;;5.03;;
3789;SDS011;1910;49.042;9.028;2023-05-14T05:31:18;6.60;;;4.28;;
3789;SDS011;1910;49.042;9.028;2023-05-14T05:33:44;6.40;;;5.67;;
3789;SDS011;1910;49.042;9.028;2023-05-14T05:36:10;6.30;;;4.30;;
3789;SDS011;1910;49.042;9.028;2023-05-14T05:38:36;5.57;;;4.57;;
3789;SDS011;1910;49.042;9.028;2023-05-14T05:41:02;10.47;;;6.13;;
3789;SDS011;1910;49.042;9.028;2023-05-14T05:43:28;8.20;;;4.63;;
3789;SDS011;1910;49.042;9.028;2023-05-14T05:45:54;8.73;;;5.17;;
3789;SDS011;1910;49.042;9.028;2023-05-14T05:48:20;9.40;;;5.75;;
3789;SDS011;1910;49.042;9.028;2023-05-14T05:50:46;9.37;;;6.40;;
3789;SDS011;1910;49.042;9.028;2023-05-14T05:53:13;7.33;;;5.27;;
3789;SDS011;1910;49.042;9.028;2023-05-14T05:55:42;6.77;;;5.10;;
3789;SDS011;1910;49.042;9.028;2023-05-14T05:58:08;7.57;;;5.90;;
3789;SDS011;1910;49.042;9.028;2023-05-14T06:00:34;8.87;;;5.30;;
3789;SDS011;1910;49.042;9.028;2023-05-14T06:03:00;10.00;;;5.30;;
3789;SDS011;1910;49.042;9.028;2023-05-14T06:05:26;6.37;;;5.00;;
3789;SDS011;1910;49.042;9.028;2023-05-14T06:07:52;6.80;;;5.40;;
3789;SDS011;1910;49.042;9.028;2023-05-14T06:10:18;7.90;;;4.97;;
3789;SDS011;1910;49.042;9.028;2023-05-14T06:12:44;6.70;;;5.37;;
3789;SDS011;1910;49.042;9.028;2023-05-14T06:15:10;7.03;;;5.80;;
3789;SDS011;1910;49.042;9.028;2023-05-14T06:17:36;9.70;;;6.07;;
3789;SDS011;1910;49.042;9.028;2023-05-14T06:20:03;7.77;;;5.77;;
3789;SDS011;1910;49.042;9.028;2023-05-14T06:22:33;6.40;;;5.03;;
3789;SDS011;1910;49.042;9.028;2023-05-14T06:24:59;7.93;;;5.00;;
3789;SDS011;1910;49.042;9.028;2023-05-14T06:27:25;8.90;;;4.67;;
3789;SDS011;1910;49.042;9.028;2023-05-14T06:29:50;7.40;;;4.73;;
3789;SDS011;1910;49.042;9.028;2023-05-14T06:32:16;8.70;;;5.20;;
3789;SDS011;1910;49.042;9.028;2023-05-14T06:34:42;6.07;;;4.50;;
3789;SDS011;1910;49.042;9.028;2023-05-14T06:37:08;10.17;;;5.83;;
3789;SDS011;1910;49.042;9.028;2023-05-14T06:39:35;7.07;;;5.17;;
3789;SDS011;1910;49.042;9.028;2023-05-14T06:42:01;9.23;;;5.00;;
3789;SDS011;1910;49.042;9.028;2023-05-14T06:44:27;6.43;;;5.30;;
3789;SDS011;1910;49.042;9.028;2023-05-14T06:46:53;5.43;;;4.90;;
3789;SDS011;1910;49.042;9.028;2023-05-14T06:49:19;7.33;;;3.97;;
3789;SDS011;1910;49.042;9.028;2023-05-14T06:51:45;5.43;;;4.30;;
3789;SDS011;1910;49.042;9.028;2023-05-14T06:54:11;4.80;;;4.33;;
3789;SDS011;1910;49.042;9.028;2023-05-14T06:56:37;5.47;;;4.50;;
3789;SDS011;1910;49.042;9.028;2023-05-14T06:59:03;4.83;;;4.30;;
3789;SDS011;1910;49.042;9.028;2023-05-14T07:01:29;7.07;;;5.03;;
3789;SDS011;1910;49.042;9.028;2023-05-14T07:03:55;6.03;;;4.80;;
3789;SDS011;1910;49.042;9.028;2023-05-14T07:06:21;7.87;;;5.20;;
3789;SDS011;1910;49.042;9.028;2023-05-14T07:08:47;5.50;;;4.73;;
3789;SDS011;1910;49.042;9.028;2023-05-14T07:11:13;6.33;;;5.70;;
3789;SDS011;1910;49.042;9.028;2023-05-14T07:13:39;7.47;;;6.67;;
3789;SDS011;1910;49.042;9.028;2023-05-14T07:16:06;8.80;;;7.87;;
3789;SDS011;1910;49.042;9.028;2023-05-14T07:18:35;9.17;;;8.37;;
3789;SDS011;1910;49.042;9.028;2023-05-14T07:21:01;10.07;;;9.23;;
3789;SDS011;1910;49.042;9.028;2023-05-14T07:23:30;10.10;;;9.30;;
3789;SDS011;1910;49.042;9.028;2023-05-14T07:25:56;10.90;;;10.10;;
3789;SDS011;1910;49.042;9.028;2023-05-14T07:28:22;10.40;;;9.70;;
3789;SDS011;1910;49.042;9.028;2023-05-14T07:30:48;10.40;;;9.60;;
3789;SDS011;1910;49.042;9.028;2023-05-14T07:33:14;9.00;;;8.30;;
3789;SDS011;1910;49.042;9.028;2023-05-14T07:35:40;9.63;;;8.93;;
3789;SDS011;1910;49.042;9.028;2023-05-14T07:38:06;10.00;;;9.30;;
3789;SDS011;1910;49.042;9.028;2023-05-14T07:40:32;10.57;;;9.53;;
3789;SDS011;1910;49.042;9.028;2023-05-14T07:42:58;10.07;;;9.37;;
3789;SDS011;1910;49.042;9.028;2023-05-14T07:45:24;10.60;;;9.70;;
3789;SDS011;1910;49.042;9.028;2023-05-14T07:47:50;11.53;;;10.70;;
3789;SDS011;1910;49.042;9.028;2023-05-14T07:50:16;10.50;;;9.60;;
3789;SDS011;1910;49.042;9.028;2023-05-14T07:52:43;10.47;;;9.57;;
3789;SDS011;1910;49.042;9.028;2023-05-14T07:55:09;10.13;;;9.43;;
3789;SDS011;1910;49.042;9.028;2023-05-14T07:57:34;10.27;;;9.47;;
3789;SDS011;1910;49.042;9.028;2023-05-14T08:00:01;10.53;;;9.70;;
3789;SDS011;1910;49.042;9.028;2023-05-14T08:02:27;10.60;;;9.77;;
3789;SDS011;1910;49.042;9.028;2023-05-14T08:04:53;11.50;;;10.50;;
3789;SDS011;1910;49.042;9.028;2023-05-14T08:07:19;10.70;;;9.90;;
3789;SDS011;1910;49.042;9.028;2023-05-14T08:09:45;11.70;;;10.80;;
3789;SDS011;1910;49.042;9.028;2023-05-14T08:12:11;11.07;;;10.17;;
3789;SDS011;1910;49.042;9.028;2023-05-14T08:14:37;10.40;;;9.60;;
3789;SDS011;1910;49.042;9.028;2023-05-14T08:17:03;10.47;;;9.57;;
3789;SDS011;1910;49.042;9.028;2023-05-14T08:19:30;10.70;;;9.83;;
3789;SDS011;1910;49.042;9.028;2023-05-14T08:21:56;10.90;;;10.00;;
3789;SDS011;1910;49.042;9.028;2023-05-14T08:24:22;10.10;;;9.20;;
3789;SDS011;1910;49.042;9.028;2023-05-14T08:26:48;11.03;;;9.80;;
3789;SDS011;1910;49.042;9.028;2023-05-14T08:29:13;9.97;;;9.07;;
3789;SDS011;1910;49.042;9.028;2023-05-14T08:31:40;10.20;;;9.37;;
3789;SDS011;1910;49.042;9.028;2023-05-14T08:34:06;9.50;;;8.70;;
3789;SDS011;1910;49.042;9.028;2023-05-14T08:36:32;9.87;;;8.37;;
3789;SDS011;1910;49.042;9.028;2023-05-14T08:38:57;8.80;;;7.03;;
3789;SDS011;1910;49.042;9.028;2023-05-14T08:41:23;9.80;;;7.43;;
3789;SDS011;1910;49.042;9.028;2023-05-14T08:44:00;8.00;;;7.30;;
3789;SDS011;1910;49.042;9.028;2023-05-14T08:46:33;6.87;;;6.00;;
3789;SDS011;1910;49.042;9.028;2023-05-14T08:49:24;11.23;;;7.20;;
3789;SDS011;1910;49.042;9.028;2023-05-14T08:52:01;7.90;;;6.87;;
3789;SDS011;1910;49.042;9.028;2023-05-14T08:54:30;6.97;;;6.30;;
3789;SDS011;1910;49.042;9.028;2023-05-14T08:56:56;7.50;;;6.77;;
3789;SDS011;1910;49.042;9.028;2023-05-14T08:59:23;9.67;;;8.23;;
3789;SDS011;1910;49.042;9.028;2023-05-14T09:01:52;11.83;;;9.60;;
3789;SDS011;1910;49.042;9.028;2023-05-14T09:04:21;9.07;;;8.37;;
3789;SDS011;1910;49.042;9.028;2023-05-14T09:06:51;10.50;;;9.50;;
3789;SDS011;1910;49.042;9.028;2023-05-14T09:09:20;10.10;;;9.20;;
3789;SDS011;1910;49.042;9.028;2023-05-14T09:11:50;10.53;;;9.63;;
3789;SDS011;1910;49.042;9.028;2023-05-14T09:14:17;11.23;;;9.63;;
3789;SDS011;1910;49.042;9.028;2023-05-14T09:16:43;9.20;;;8.40;;
3789;SDS011;1910;49.042;9.028;2023-05-14T09:19:10;10.90;;;9.80;;
3789;SDS011;1910;49.042;9.028;2023-05-14T09:21:36;9.27;;;8.37;;
3789;SDS011;1910;49.042;9.028;2023-05-14T09:24:02;9.00;;;8.20;;
3789;SDS011;1910;49.042;9.028;2023-05-14T09:26:30;8.70;;;7.73;;
3789;SDS011;1910;49.042;9.028;2023-05-14T09:28:58;10.07;;;9.03;;
3789;SDS011;1910;49.042;9.028;2023-05-14T09:31:28;8.63;;;7.87;;
3789;SDS011;1910;49.042;9.028;2023-05-14T09:33:55;8.33;;;7.60;;
3789;SDS011;1910;49.042;9.028;2023-05-14T09:36:21;9.93;;;8.37;;
3789;SDS011;1910;49.042;9.028;2023-05-14T09:38:48;9.67;;;8.77;;
3789;SDS011;1910;49.042;9.028;2023-05-14T09:41:14;7.87;;;7.17;;
3789;SDS011;1910;49.042;9.028;2023-05-14T09:43:41;9.10;;;8.07;;
3789;SDS011;1910;49.042;9.028;2023-05-14T09:46:08;8.40;;;7.60;;
3789;SDS011;1910;49.042;9.028;2023-05-14T09:48:36;8.63;;;7.73;;
3789;SDS011;1910;49.042;9.028;2023-05-14T09:51:05;8.27;;;7.47;;
3789;SDS011;1910;49.042;9.028;2023-05-14T09:53:33;9.70;;;8.70;;
3789;SDS011;1910;49.042;9.028;2023-05-14T09:55:59;10.30;;;8.20;;
3789;SDS011;1910;49.042;9.028;2023-05-14T09:58:25;8.27;;;7.27;;
3789;SDS011;1910;49.042;9.028;2023-05-14T10:00:51;10.90;;;6.90;;
3789;SDS011;1910;49.042;9.028;2023-05-14T10:03:20;8.93;;;6.57;;
3789;SDS011;1910;49.042;9.028;2023-05-14T10:05:48;8.10;;;7.07;;
3789;SDS011;1910;49.042;9.028;2023-05-14T10:08:25;8.17;;;6.90;;
3789;SDS011;1910;49.042;9.028;2023-05-14T10:10:55;9.80;;;7.20;;
3789;SDS011;1910;49.042;9.028;2023-05-14T10:13:23;6.53;;;5.93;;
3789;SDS011;1910;49.042;9.028;2023-05-14T10:19:10;6.53;;;5.60;;
3789;SDS011;1910;49.042;9.028;2023-05-14T10:21:36;4.50;;;4.10;;
3789;SDS011;1910;49.042;9.028;2023-05-14T10:24:07;6.30;;;5.47;;
3789;SDS011;1910;49.042;9.028;2023-05-14T10:26:34;7.00;;;4.90;;
3789;SDS011;1910;49.042;9.028;2023-05-14T10:29:03;10.13;;;6.77;;
3789;SDS011;1910;49.042;9.028;2023-05-14T10:31:43;8.40;;;5.90;;
3789;SDS011;1910;49.042;9.028;2023-05-14T10:37:08;10.50;;;5.90;;
3789;SDS011;1910;49.042;9.028;2023-05-14T10:39:45;6.70;;;5.07;;
3789;SDS011;1910;49.042;9.028;2023-05-14T10:47:14;8.43;;;6.10;;
3789;SDS011;1910;49.042;9.028;2023-05-14T10:49:41;8.20;;;4.70;;
3789;SDS011;1910;49.042;9.028;2023-05-14T10:52:09;5.73;;;4.80;;
3789;SDS011;1910;49.042;9.028;2023-05-14T10:54:36;7.30;;;4.73;;
3789;SDS011;1910;49.042;9.028;2023-05-14T10:57:02;7.67;;;5.63;;
3789;SDS011;1910;49.042;9.028;2023-05-14T10:59:28;8.90;;;6.27;;
3789;SDS011;1910;49.042;9.028;2023-05-14T11:01:56;5.63;;;4.77;;
3789;SDS011;1910;49.042;9.028;2023-05-14T11:04:24;4.37;;;3.97;;
3789;SDS011;1910;49.042;9.028;2023-05-14T11:06:52;6.50;;;4.90;;
3789;SDS011;1910;49.042;9.028;2023-05-14T11:09:18;4.33;;;3.93;;
3789;SDS011;1910;49.042;9.028;2023-05-14T11:11:46;10.10;;;6.07;;
3789;SDS011;1910;49.042;9.028;2023-05-14T11:14:11;7.30;;;5.47;;
3789;SDS011;1910;49.042;9.028;2023-05-14T11:16:37;6.17;;;5.00;;
3789;SDS011;1910;49.042;9.028;2023-05-14T11:19:05;6.60;;;5.53;;
3789;SDS011;1910;49.042;9.028;2023-05-14T11:21:31;5.97;;;4.90;;
3789;SDS011;1910;49.042;9.028;2023-05-14T11:23:58;7.73;;;5.40;;
3789;SDS011;1910;49.042;9.028;2023-05-14T11:26:24;6.80;;;5.40;;
3789;SDS011;1910;49.042;9.028;2023-05-14T11:28:51;6.67;;;5.10;;
3789;SDS011;1910;49.042;9.028;2023-05-14T11:31:16;7.80;;;4.80;;
3789;SDS011;1910;49.042;9.028;2023-05-14T11:33:43;4.77;;;4.10;;
3789;SDS011;1910;49.042;9.028;2023-05-14T11:36:09;7.20;;;4.97;;
3789;SDS011;1910;49.042;9.028;2023-05-14T11:38:44;6.80;;;5.17;;
3789;SDS011;1910;49.042;9.028;2023-05-14T11:41:15;6.00;;;4.37;;
3789;SDS011;1910;49.042;9.028;2023-05-14T11:43:41;7.43;;;5.33;;
3789;SDS011;1910;49.042;9.028;2023-05-14T11:46:07;6.87;;;4.80;;
3789;SDS011;1910;49.042;9.028;2023-05-14T11:48:40;5.80;;;4.43;;
3789;SDS011;1910;49.042;9.028;2023-05-14T11:51:06;5.37;;;3.80;;
3789;SDS011;1910;49.042;9.028;2023-05-14T11:53:31;5.37;;;4.37;;
3789;SDS011;1910;49.042;9.028;2023-05-14T11:55:57;5.53;;;4.13;;
3789;SDS011;1910;49.042;9.028;2023-05-14T11:58:23;5.90;;;4.40;;
3789;SDS011;1910;49.042;9.028;2023-05-14T12:00:50;6.10;;;5.07;;
3789;SDS011;1910;49.042;9.028;2023-05-14T12:03:19;4.87;;;4.13;;
3789;SDS011;1910;49.042;9.028;2023-05-14T12:05:56;6.00;;;4.43;;
3789;SDS011;1910;49.042;9.028;2023-05-14T12:08:26;5.13;;;4.07;;
3789;SDS011;1910;49.042;9.028;2023-05-14T12:10:54;5.17;;;4.60;;
3789;SDS011;1910;49.042;9.028;2023-05-14T12:13:20;4.40;;;3.83;;
3789;SDS011;1910;49.042;9.028;2023-05-14T12:15:48;5.50;;;3.67;;
3789;SDS011;1910;49.042;9.028;2023-05-14T12:18:18;5.07;;;4.20;;
3789;SDS011;1910;49.042;9.028;2023-05-14T12:20:45;4.90;;;3.27;;
3789;SDS011;1910;49.042;9.028;2023-05-14T12:23:12;5.63;;;4.30;;
3789;SDS011;1910;49.042;9.028;2023-05-14T12:25:37;4.20;;;3.67;;
3789;SDS011;1910;49.042;9.028;2023-05-14T12:28:13;3.50;;;3.00;;
3789;SDS011;1910;49.042;9.028;2023-05-14T12:30:42;3.60;;;3.30;;
3789;SDS011;1910;49.042;9.028;2023-05-14T12:33:07;4.27;;;3.53;;
3789;SDS011;1910;49.042;9.028;2023-05-14T12:35:33;6.47;;;3.17;;
3789;SDS011;1910;49.042;9.028;2023-05-14T12:38:00;4.40;;;3.87;;
3789;SDS011;1910;49.042;9.028;2023-05-14T12:40:27;3.70;;;3.17;;
3789;SDS011;1910;49.042;9.028;2023-05-14T12:42:53;4.27;;;3.57;;
3789;SDS011;1910;49.042;9.028;2023-05-14T12:45:18;5.07;;;3.30;;
3789;SDS011;1910;49.042;9.028;2023-05-14T12:47:44;4.17;;;3.13;;
3789;SDS011;1910;49.042;9.028;2023-05-14T12:50:10;5.67;;;3.50;;
3789;SDS011;1910;49.042;9.028;2023-05-14T12:52:36;5.27;;;3.40;;
3789;SDS011;1910;49.042;9.028;2023-05-14T12:55:02;4.13;;;3.43;;
3789;SDS011;1910;49.042;9.028;2023-05-14T12:57:28;4.40;;;3.40;;
3789;SDS011;1910;49.042;9.028;2023-05-14T12:59:55;4.60;;;3.57;;
3789;SDS011;1910;49.042;9.028;2023-05-14T13:02:21;4.67;;;3.80;;
3789;SDS011;1910;49.042;9.028;2023-05-14T13:04:46;4.10;;;3.60;;
3789;SDS011;1910;49.042;9.028;2023-05-14T13:07:12;4.23;;;3.50;;
3789;SDS011;1910;49.042;9.028;2023-05-14T13:09:37;5.90;;;4.00;;
3789;SDS011;1910;49.042;9.028;2023-05-14T13:12:03;4.43;;;3.13;;
3789;SDS011;1910;49.042;9.028;2023-05-14T13:14:29;5.93;;;4.13;;
3789;SDS011;1910;49.042;9.028;2023-05-14T13:16:55;5.00;;;3.50;;
3789;SDS011;1910;49.042;9.028;2023-05-14T13:19:20;5.57;;;3.50;;
3789;SDS011;1910;49.042;9.028;2023-05-14T13:21:46;3.97;;;3.40;;
3789;SDS011;1910;49.042;9.028;2023-05-14T13:24:11;5.33;;;4.13;;
3789;SDS011;1910;49.042;9.028;2023-05-14T13:26:37;7.70;;;4.40;;
3789;SDS011;1910;49.042;9.028;2023-05-14T13:29:03;6.73;;;4.90;;
3789;SDS011;1910;49.042;9.028;2023-05-14T13:31:28;5.87;;;3.90;;
3789;SDS011;1910;49.042;9.028;2023-05-14T13:33:54;5.87;;;4.30;;
3789;SDS011;1910;49.042;9.028;2023-05-14T13:36:21;6.00;;;3.73;;
3789;SDS011;1910;49.042;9.028;2023-05-14T13:38:47;4.87;;;3.37;;
3789;SDS011;1910;49.042;9.028;2023-05-14T13:41:13;5.80;;;3.80;;
3789;SDS011;1910;49.042;9.028;2023-05-14T13:43:39;6.43;;;4.07;;
3789;SDS011;1910;49.042;9.028;2023-05-14T13:46:05;4.50;;;3.70;;
3789;SDS011;1910;49.042;9.028;2023-05-14T13:48:31;4.63;;;3.83;;
3789;SDS011;1910;49.042;9.028;2023-05-14T13:50:58;4.47;;;3.40;;
3789;SDS011;1910;49.042;9.028;2023-05-14T13:53:24;5.57;;;3.60;;
3789;SDS011;1910;49.042;9.028;2023-05-14T13:55:50;4.73;;;3.80;;
3789;SDS011;1910;49.042;9.028;2023-05-14T13:58:22;3.73;;;3.43;;
3789;SDS011;1910;49.042;9.028;2023-05-14T14:00:48;4.70;;;3.37;;
3789;SDS011;1910;49.042;9.028;2023-05-14T14:03:14;5.57;;;3.10;;
3789;SDS011;1910;49.042;9.028;2023-05-14T14:05:40;3.97;;;3.13;;
3789;SDS011;1910;49.042;9.028;2023-05-14T14:08:05;4.50;;;4.10;;
3789;SDS011;1910;49.042;9.028;2023-05-14T14:10:31;3.70;;;3.27;;
3789;SDS011;1910;49.042;9.028;2023-05-14T14:12:57;3.30;;;3.00;;
3789;SDS011;1910;49.042;9.028;2023-05-14T14:15:23;4.60;;;3.30;;
3789;SDS011;1910;49.042;9.028;2023-05-14T14:17:49;4.33;;;2.87;;
3789;SDS011;1910;49.042;9.028;2023-05-14T14:20:15;3.37;;;3.07;;
3789;SDS011;1910;49.042;9.028;2023-05-14T14:22:42;3.97;;;3.57;;
3789;SDS011;1910;49.042;9.028;2023-05-14T14:25:08;4.13;;;3.07;;
3789;SDS011;1910;49.042;9.028;2023-05-14T14:27:35;3.90;;;2.93;;
3789;SDS011;1910;49.042;9.028;2023-05-14T14:30:11;3.60;;;2.60;;
3789;SDS011;1910;49.042;9.028;2023-05-14T14:35:15;4.53;;;3.30;;
3789;SDS011;1910;49.042;9.028;2023-05-14T14:37:43;3.47;;;2.90;;
3789;SDS011;1910;49.042;9.028;2023-05-14T14:40:13;4.10;;;3.53;;
3789;SDS011;1910;49.042;9.028;2023-05-14T14:42:39;4.03;;;3.10;;
3789;SDS011;1910;49.042;9.028;2023-05-14T14:45:05;5.00;;;3.03;;
3789;SDS011;1910;49.042;9.028;2023-05-14T14:47:31;4.17;;;3.00;;
3789;SDS011;1910;49.042;9.028;2023-05-14T14:49:57;3.40;;;2.73;;
3789;SDS011;1910;49.042;9.028;2023-05-14T14:52:23;4.07;;;3.07;;
3789;SDS011;1910;49.042;9.028;2023-05-14T14:54:49;3.27;;;2.93;;
3789;SDS011;1910;49.042;9.028;2023-05-14T14:57:15;4.17;;;3.30;;
3789;SDS011;1910;49.042;9.028;2023-05-14T14:59:41;2.97;;;2.70;;
3789;SDS011;1910;49.042;9.028;2023-05-14T15:02:07;3.40;;;2.50;;
3789;SDS011;1910;49.042;9.028;2023-05-14T15:04:34;4.33;;;3.93;;
3789;SDS011;1910;49.042;9.028;2023-05-14T15:07:00;3.10;;;2.50;;
3789;SDS011;1910;49.042;9.028;2023-05-14T15:09:26;4.40;;;2.97;;
3789;SDS011;1910;49.042;9.028;2023-05-14T15:11:51;4.70;;;3.70;;
3789;SDS011;1910;49.042;9.028;2023-05-14T15:14:18;4.13;;;2.93;;
3789;SDS011;1910;49.042;9.028;2023-05-14T15:16:43;3.70;;;2.67;;
3789;SDS011;1910;49.042;9.028;2023-05-14T15:19:09;1.90;;;1.80;;
3789;SDS011;1910;49.042;9.028;2023-05-14T15:21:35;2.87;;;2.20;;
3789;SDS011;1910;49.042;9.028;2023-05-14T15:24:01;3.87;;;2.50;;
3789;SDS011;1910;49.042;9.028;2023-05-14T15:26:28;4.57;;;2.20;;
3789;SDS011;1910;49.042;9.028;2023-05-14T15:28:54;2.80;;;2.20;;